OOCL Genoa — VROK9 — position and weather

sailwx.info

Track history (hours):
 
Tides and Currents Weather Stations Pressure Air Temp Water Temp Dewpoint Dewpoint Depression Visibility Wind Speed Wind Dir Waves Ship Positions

OOCL Genoa

Last reported at 2018-Jan-12 14:30 UTC. Time now 2018-Jan-23 18:10 UTC.
Position N 23°43' E 119°56'.
Warning: this ship's position is 11 days out of date.

Length 334 m; draft 12 m.

Type: Cargo ship. MMSI: 477454900.

Date/timePositionNaut miles runAvg speedWind from/ knotsBaromVisibWave heightAir tempDewpointWater temp
2018-Jan-12 14:30N 23°43' E 119°56'817.1
2018-Jan-12 14:00N 23°35' E 119°56'917.9
2018-Jan-12 13:30N 23°26' E 119°56'918.3
2018-Jan-12 13:00N 23°17' E 119°54'1118.9
2018-Jan-12 12:25N 23°06' E 119°55'819.8
2018-Jan-12 12:00N 22°58' E 119°58'1020.8
2018-Jan-12 11:30N 22°48' E 120°02'1121.6
2018-Jan-12 11:00N 22°39' E 120°08'918.2
2018-Jan-12 10:30N 22°33' E 120°15'4 7.5
2018-Jan-12 10:00N 22°33' E 120°19'1 1.9
2018-Jan-12 09:30N 22°34' E 120°19'0 0.0
2018-Jan-12 09:00N 22°34' E 120°19'0 0.0
2018-Jan-12 08:30N 22°34' E 120°19'0 0.0
2018-Jan-12 08:00N 22°34' E 120°19'0 0.0
2018-Jan-12 07:30N 22°34' E 120°19'0 0.0
2018-Jan-12 07:00N 22°34' E 120°19'0 0.0
2018-Jan-12 06:27N 22°34' E 120°19'0 0.0
2018-Jan-12 06:00N 22°34' E 120°19'0 0.0
2018-Jan-12 05:30N 22°34' E 120°19'0 0.0
2018-Jan-12 05:00N 22°34' E 120°19'0 0.0
2018-Jan-12 04:27N 22°34' E 120°19'0 0.0
2018-Jan-12 04:00N 22°34' E 120°19'0 0.0
2018-Jan-12 03:30N 22°34' E 120°19'0 0.0
2018-Jan-12 02:57N 22°34' E 120°19'0 0.0
2018-Jan-12 02:30N 22°34' E 120°19'0 0.0
2018-Jan-12 02:00N 22°34' E 120°19'0 0.0
2018-Jan-12 01:21N 22°34' E 120°19'0 0.0
2018-Jan-12 01:00N 22°34' E 120°19'0 0.0
2018-Jan-12 00:30N 22°34' E 120°19'0 0.0
2018-Jan-12 00:00N 22°34' E 120°19'1 2.1
2018-Jan-11 23:30N 22°33' E 120°19'3 6.5
2018-Jan-11 23:00N 22°32' E 120°16'5 9.0
2018-Jan-11 22:30N 22°32' E 120°11'713.5
2018-Jan-11 22:00N 22°31' E 120°04'712.9
2018-Jan-11 21:30N 22°31' E 119°57'714.3
2018-Jan-11 20:59N 22°30' E 119°49'1813.8
2018-Jan-11 19:39N 22°28' E 119°29'298 5.9
2018-Jan-09 17:09N 22°20' E 114°07'1 3.6
2018-Jan-09 16:58N 22°21' E 114°07'0 0.0
2018-Jan-09 02:23N 22°21' E 114°07'1 3.4
2018-Jan-09 01:59N 22°19' E 114°07'  
Track history (hours):
 
Tides and Currents Weather Stations Pressure Air Temp Water Temp Dewpoint Dewpoint Depression Visibility Wind Speed Wind Dir Waves Ship Positions

OOCL Genoa

Last reported at 2018-Jan-12 14:30 UTC. Time now 2018-Jan-23 18:10 UTC.
Position N 23°43' E 119°56'.
Warning: this ship's position is 11 days out of date.

Length 334 m; draft 12 m.

Type: Cargo ship. MMSI: 477454900.

Date/timePositionNaut miles runAvg speedWind from/ knotsBaromVisibWave heightAir tempDewpointWater temp
2018-Jan-12 14:30N 23°43' E 119°56'817.1
2018-Jan-12 14:00N 23°35' E 119°56'917.9
2018-Jan-12 13:30N 23°26' E 119°56'918.3
2018-Jan-12 13:00N 23°17' E 119°54'1118.9
2018-Jan-12 12:25N 23°06' E 119°55'819.8
2018-Jan-12 12:00N 22°58' E 119°58'1020.8
2018-Jan-12 11:30N 22°48' E 120°02'1121.6
2018-Jan-12 11:00N 22°39' E 120°08'918.2
2018-Jan-12 10:30N 22°33' E 120°15'4 7.5
2018-Jan-12 10:00N 22°33' E 120°19'1 1.9
2018-Jan-12 09:30N 22°34' E 120°19'0 0.0
2018-Jan-12 09:00N 22°34' E 120°19'0 0.0
2018-Jan-12 08:30N 22°34' E 120°19'0 0.0
2018-Jan-12 08:00N 22°34' E 120°19'0 0.0
2018-Jan-12 07:30N 22°34' E 120°19'0 0.0
2018-Jan-12 07:00N 22°34' E 120°19'0 0.0
2018-Jan-12 06:27N 22°34' E 120°19'0 0.0
2018-Jan-12 06:00N 22°34' E 120°19'0 0.0
2018-Jan-12 05:30N 22°34' E 120°19'0 0.0
2018-Jan-12 05:00N 22°34' E 120°19'0 0.0
2018-Jan-12 04:27N 22°34' E 120°19'0 0.0
2018-Jan-12 04:00N 22°34' E 120°19'0 0.0
2018-Jan-12 03:30N 22°34' E 120°19'0 0.0
2018-Jan-12 02:57N 22°34' E 120°19'0 0.0
2018-Jan-12 02:30N 22°34' E 120°19'0 0.0
2018-Jan-12 02:00N 22°34' E 120°19'0 0.0
2018-Jan-12 01:21N 22°34' E 120°19'0 0.0
2018-Jan-12 01:00N 22°34' E 120°19'0 0.0
2018-Jan-12 00:30N 22°34' E 120°19'0 0.0
2018-Jan-12 00:00N 22°34' E 120°19'1 2.1
2018-Jan-11 23:30N 22°33' E 120°19'3 6.5
2018-Jan-11 23:00N 22°32' E 120°16'5 9.0
2018-Jan-11 22:30N 22°32' E 120°11'713.5
2018-Jan-11 22:00N 22°31' E 120°04'712.9
2018-Jan-11 21:30N 22°31' E 119°57'714.3
2018-Jan-11 20:59N 22°30' E 119°49'1813.8
2018-Jan-11 19:39N 22°28' E 119°29'298 5.9
2018-Jan-09 17:09N 22°20' E 114°07'1 3.6
2018-Jan-09 16:58N 22°21' E 114°07'0 0.0
2018-Jan-09 02:23N 22°21' E 114°07'1 3.4
2018-Jan-09 01:59N 22°19' E 114°07'  

Dump ship's entire track history